WetterOnline ( https://www.wetteronline.at )

Wetter aktuell Kassel

Aktuelles Wetter: Schauenburg-Elgershausen (317m)

6-stündlich | Neueste Meldungen
Ortszeit Temperatur Wetter
Di, 20.08. 2:00 14.3° C bewölkt
Mo, 19.08. 20:00 19.2° C bewölkt
Mo, 19.08. 14:00 19.3° C bewölkt
Mo, 19.08. 8:00 13.5° C wolkenlos
Mo, 19.08. 2:00 13.6° C bedeckt
So, 18.08. 20:00 18.0° C wolkig
So, 18.08. 14:00 20.5° C bedeckt
So, 18.08. 8:00 15.8° C Sprühregen
Ortszeit Temperatur Wetter
Di, 20.08. 3:30 11.4° C wolkenlos
Di, 20.08. 3:20 11.4° C wolkenlos
Di, 20.08. 3:10 11.8° C wolkenlos
Di, 20.08. 3:00 12.2° C leicht bewölkt
Di, 20.08. 2:50 12.2° C leicht bewölkt
Di, 20.08. 2:40 12.7° C leicht bewölkt
Di, 20.08. 2:30 12.9° C bewölkt
Di, 20.08. 2:00 14.3° C bewölkt
Di, 20.08. 1:30 14.4° C bewölkt
Di, 20.08. 1:00 13.9° C bedeckt
Di, 20.08. 0:30 13.4° C bewölkt
Ortszeit Relative Feuchte Sichtweite
Di, 20.08. 2:00 76% 45 km
Mo, 19.08. 20:00 51% 50 km
Mo, 19.08. 14:00 48% >70 km
Mo, 19.08. 8:00 82% 45 km
Mo, 19.08. 2:00 97% 26 km
So, 18.08. 20:00 93% 60 km
So, 18.08. 14:00 84% 55 km
So, 18.08. 8:00 99% 3.6 km
Ortszeit Relative Feuchte Sichtweite
Di, 20.08. 3:30 88% 45 km
Di, 20.08. 3:20 88% -
Di, 20.08. 3:10 88% -
Di, 20.08. 3:00 84% 55 km
Di, 20.08. 2:50 84% -
Di, 20.08. 2:40 79% -
Di, 20.08. 2:30 80% 60 km
Di, 20.08. 2:00 76% 45 km
Di, 20.08. 1:30 74% 60 km
Di, 20.08. 1:00 78% 55 km
Di, 20.08. 0:30 79% 50 km
Ortszeit Niederschlagsmenge Niederschlagsart
Di, 20.08. 2:00 0.0 l/m2 in 6 Std. -
Mo, 19.08. 20:00 0.0 l/m2 in 12 Std. -
Mo, 19.08. 14:00 0.0 l/m2 in 6 Std. -
Mo, 19.08. 8:00 0.0 l/m2 in 12 Std. -
Mo, 19.08. 2:00 0.0 l/m2 in 6 Std. -
So, 18.08. 20:00 7 l/m2 in 12 Std. Regenschauer
So, 18.08. 14:00 2 l/m2 in 6 Std. Regen
So, 18.08. 8:00 0.7 l/m2 in 12 Std. Regen
Ortszeit Niederschlagsmenge Niederschlagsart
Di, 20.08. 3:30 0.0 l/m2 in 1 Std. -
Di, 20.08. 3:20 keine Meldung -
Di, 20.08. 3:10 keine Meldung -
Di, 20.08. 3:00 0.0 l/m2 in 1 Std. -
Di, 20.08. 2:50 keine Meldung -
Di, 20.08. 2:40 keine Meldung -
Di, 20.08. 2:30 0.0 l/m2 in 1 Std. -
Di, 20.08. 2:00 0.0 l/m2 in 1 Std. -
Di, 20.08. 1:30 0.0 l/m2 in 1 Std. -
Di, 20.08. 1:00 0.0 l/m2 in 1 Std. -
Di, 20.08. 0:30 0.0 l/m2 in 1 Std. -
Ortszeit Stärke Spitze Richtung
km/h Bft. km/h Grad Sektor
Di, 20.08. 2:00 4 1 11 350° N
Mo, 19.08. 20:00 7 2 32 290° W
Mo, 19.08. 14:00 14 3 36 240° SW
Mo, 19.08. 8:00 7 2 14 300° NW
Mo, 19.08. 2:00 4 1 18 350° N
So, 18.08. 20:00 7 2 47 270° W
So, 18.08. 14:00 11 2 25 160° S
So, 18.08. 8:00 7 2 18 140° SO
Ortszeit Stärke Spitze Richtung
km/h Bft. km/h Grad Sektor
Di, 20.08. 3:30 4 1 4 320° NW
Di, 20.08. 3:20 4 1 - 320° NW
Di, 20.08. 3:10 2 1 - 210° SW
Di, 20.08. 3:00 4 1 7 90° O
Di, 20.08. 2:50 4 1 - 90° O
Di, 20.08. 2:40 4 1 - 350° N
Di, 20.08. 2:30 2 1 4 10° N
Di, 20.08. 2:00 4 1 7 350° N
Di, 20.08. 1:30 6 1 7 350° N
Di, 20.08. 1:00 4 1 11 300° NW
Di, 20.08. 0:30 7 2 11 340° N
Ortszeit Untergrenze Bedeckung Gattung
total tief tief mittel hoch
Di, 20.08. 2:00 2100 m 7/8 7/8 - - -
Mo, 19.08. 20:00 2400 m 7/8 6/8 - - -
Mo, 19.08. 14:00 1500 m 7/8 7/8 - - -
Mo, 19.08. 8:00 - 0/8 0/8 - - -
Mo, 19.08. 2:00 5700 m 8/8 8/8 - - -
So, 18.08. 20:00 930 m 8/8 2/8 - - -
So, 18.08. 14:00 450 m 8/8 8/8 - - -
So, 18.08. 8:00 60 m 7/8 7/8 - - -
Ortszeit Bedeckungsgrad in Achtel und Wolkenuntergrenze
Di, 20.08. 3:30 keine Wolken
Di, 20.08. 3:20 keine Wolken
Di, 20.08. 3:10 keine Wolken
Di, 20.08. 3:00 1(2100m) 3(8100m)
Di, 20.08. 2:50 1(2100m) 3(8100m)
Di, 20.08. 2:40 3(2100m) 5(8100m)
Di, 20.08. 2:30 7(2100m) 7(8100m)
Di, 20.08. 2:00 7(2100m)
Di, 20.08. 1:30 7(2100m)
Di, 20.08. 1:00 8(2100m) 8(8100m)
Di, 20.08. 0:30 7(2400m) 7(8100m)
Ortszeit Luftdruck NN (hPa) Tendenz (hPa in 3 Std.)
Di, 20.08. 2:00 1021 + 0,9
Mo, 19.08. 20:00 1018 + 0,8
Mo, 19.08. 14:00 1017 + 0,9
Mo, 19.08. 8:00 1016 + 1,7
Mo, 19.08. 2:00 1012 + 1,1
So, 18.08. 20:00 1009 + 2,2
So, 18.08. 14:00 1005 - 1,0
So, 18.08. 8:00 1008 - 0,5
Ortszeit Luftdruck NN (hPa) Tendenz (hPa in 3 Std.)
Di, 20.08. 3:30 1021 + 0,7
Di, 20.08. 3:20 1021 keine Meldung
Di, 20.08. 3:10 1021 keine Meldung
Di, 20.08. 3:00 1021 + 0,7
Di, 20.08. 2:50 1021 keine Meldung
Di, 20.08. 2:40 1021 keine Meldung
Di, 20.08. 2:30 1021 + 0,8
Di, 20.08. 2:00 1021 + 0,9
Di, 20.08. 1:30 1021 + 1,0
Di, 20.08. 1:00 1021 + 1,1
Di, 20.08. 0:30 1020 + 1,0
Ortszeit Schneehöhe (cm)
Di, 20.08. 2:00 -
Mo, 19.08. 20:00 -
Mo, 19.08. 14:00 -
Mo, 19.08. 8:00 -
Mo, 19.08. 2:00 -
So, 18.08. 20:00 -
So, 18.08. 14:00 -
So, 18.08. 8:00 -
Ortszeit Schneehöhe (cm)
Di, 20.08. 3:30 -
Di, 20.08. 3:20 -
Di, 20.08. 3:10 -
Di, 20.08. 3:00 -
Di, 20.08. 2:50 -
Di, 20.08. 2:40 -
Di, 20.08. 2:30 -
Di, 20.08. 2:00 -
Di, 20.08. 1:30 -
Di, 20.08. 1:00 -
Di, 20.08. 0:30 -
Link zu dieser Seite / Seite empfehlen

Das Wetter in ...